createdAt,value
2023-05-03T00:00:31.840Z,76.73
2023-05-03T00:01:31.835Z,76.83
2023-05-03T00:02:31.862Z,77.76
2023-05-03T00:03:31.799Z,77.86
2023-05-03T00:04:31.793Z,77.25
2023-05-03T00:05:32.178Z,77.25
2023-05-03T00:06:31.803Z,77.86
2023-05-03T00:07:31.746Z,77.04
2023-05-03T00:08:31.732Z,77.55
2023-05-03T00:09:31.734Z,77.76
2023-05-03T00:10:31.703Z,77.90
2023-05-03T00:11:31.705Z,77.90
2023-05-03T00:12:31.686Z,78.00
2023-05-03T00:13:31.682Z,77.28
2023-05-03T00:14:31.666Z,77.80
2023-05-03T00:15:31.673Z,78.21
2023-05-03T00:16:31.667Z,77.80
2023-05-03T00:17:31.674Z,77.90
2023-05-03T00:18:31.618Z,78.04
2023-05-03T00:19:32.038Z,78.04
2023-05-03T00:20:31.613Z,77.94
2023-05-03T00:21:31.591Z,78.45
2023-05-03T00:22:31.588Z,78.04
2023-05-03T00:23:31.555Z,78.11
2023-05-03T00:24:31.568Z,78.00
2023-05-03T00:25:31.554Z,77.83
2023-05-03T00:26:31.530Z,77.83
2023-05-03T00:27:31.510Z,78.04
2023-05-03T00:28:31.508Z,78.11
2023-05-03T00:29:31.515Z,77.94
2023-05-03T00:30:31.476Z,78.04
2023-05-03T00:31:31.549Z,77.94
2023-05-03T00:32:31.482Z,78.04
2023-05-03T00:33:31.496Z,78.14
2023-05-03T00:34:31.429Z,77.83
2023-05-03T00:35:31.444Z,78.04
2023-05-03T00:36:31.435Z,77.42
2023-05-03T00:37:31.417Z,77.42
2023-05-03T00:38:31.422Z,78.14
2023-05-03T00:39:31.408Z,78.08
2023-05-03T00:40:31.363Z,77.76
2023-05-03T00:41:31.366Z,78.04
2023-05-03T00:42:31.341Z,77.87
2023-05-03T00:43:31.328Z,78.49
2023-05-03T00:44:31.347Z,78.14
2023-05-03T00:45:31.329Z,78.38
2023-05-03T00:46:31.305Z,78.49
2023-05-03T00:47:31.336Z,78.80
2023-05-03T00:48:31.273Z,78.80
2023-05-03T00:49:31.317Z,78.59
2023-05-03T00:50:31.273Z,79.00
2023-05-03T00:51:31.242Z,79.00
2023-05-03T00:52:31.237Z,79.00
2023-05-03T00:53:31.213Z,79.21
2023-05-03T00:54:31.251Z,79.00
2023-05-03T00:55:31.194Z,79.21
2023-05-03T00:56:35.243Z,78.90
2023-05-03T00:57:32.180Z,79.72
2023-05-03T00:58:31.160Z,80.24
2023-05-03T00:59:31.147Z,79.86
2023-05-03T01:00:31.168Z,79.93
2023-05-03T01:01:31.168Z,79.21
2023-05-03T01:02:31.250Z,79.55
2023-05-03T01:03:31.236Z,79.14
2023-05-03T01:04:31.108Z,79.62
2023-05-03T01:05:31.146Z,79.45
2023-05-03T01:06:31.124Z,79.14
2023-05-03T01:07:31.066Z,80.18
2023-05-03T01:08:31.050Z,80.38
2023-05-03T01:09:31.047Z,80.48
2023-05-03T01:10:31.037Z,79.97
2023-05-03T01:11:31.017Z,80.18
2023-05-03T01:12:31.013Z,80.18
2023-05-03T01:13:30.982Z,80.48
2023-05-03T01:14:30.993Z,80.48
2023-05-03T01:15:30.973Z,80.38
2023-05-03T01:16:31.032Z,80.79
2023-05-03T01:17:30.980Z,80.42
2023-05-03T01:18:30.931Z,81.04
2023-05-03T01:19:30.943Z,80.93
2023-05-03T01:20:30.968Z,80.52
2023-05-03T01:21:30.931Z,80.62
2023-05-03T01:22:30.902Z,80.52
2023-05-03T01:23:30.884Z,80.62
2023-05-03T01:24:30.876Z,80.90
2023-05-03T01:25:30.849Z,80.21
2023-05-03T01:26:30.867Z,80.73
2023-05-03T01:27:30.850Z,80.73
2023-05-03T01:28:30.820Z,80.52
2023-05-03T01:29:30.801Z,80.52
2023-05-03T01:30:30.793Z,80.52
2023-05-03T01:31:30.836Z,80.32
2023-05-03T01:32:30.821Z,80.32
2023-05-03T01:33:30.757Z,80.83
2023-05-03T01:34:30.762Z,80.52
2023-05-03T01:35:30.737Z,80.73
2023-05-03T01:36:30.734Z,80.62
2023-05-03T01:37:30.761Z,80.32
2023-05-03T01:38:30.723Z,80.52
2023-05-03T01:39:30.693Z,80.73
2023-05-03T01:40:30.717Z,80.46
2023-05-03T01:41:30.733Z,81.18
2023-05-03T01:42:30.704Z,80.93
2023-05-03T01:43:30.664Z,80.76
2023-05-03T01:44:30.673Z,80.46
2023-05-03T01:45:30.713Z,81.18
2023-05-03T01:46:30.650Z,81.56
2023-05-03T01:47:30.667Z,81.38
2023-05-03T01:48:30.619Z,81.38
2023-05-03T01:49:30.591Z,81.28
2023-05-03T01:50:30.584Z,81.38
2023-05-03T01:51:30.564Z,81.59
2023-05-03T01:52:30.577Z,81.28
2023-05-03T01:53:30.556Z,81.28
2023-05-03T01:54:30.549Z,81.35
2023-05-03T01:55:30.528Z,81.38
2023-05-03T01:56:30.520Z,81.59
2023-05-03T01:57:30.516Z,81.49
2023-05-03T01:58:30.481Z,81.70
2023-05-03T01:59:30.461Z,81.80
2023-05-03T02:00:30.453Z,81.70
2023-05-03T02:01:30.495Z,81.80
2023-05-03T02:02:30.477Z,81.59
2023-05-03T02:03:30.432Z,81.32
2023-05-03T02:04:30.499Z,82.15
2023-05-03T02:05:30.395Z,82.25
2023-05-03T02:06:30.460Z,82.15
2023-05-03T02:07:30.402Z,82.87
2023-05-03T02:08:30.383Z,82.42
2023-05-03T02:09:30.373Z,82.70
2023-05-03T02:10:30.340Z,82.45
2023-05-03T02:11:30.327Z,82.56
2023-05-03T02:12:30.341Z,82.35
2023-05-03T02:13:30.344Z,82.80
2023-05-03T02:14:30.310Z,83.07
2023-05-03T02:15:30.278Z,82.90
2023-05-03T02:16:30.362Z,82.66
2023-05-03T02:17:30.298Z,82.90
2023-05-03T02:18:30.272Z,82.97
2023-05-03T02:19:30.240Z,83.01
2023-05-03T02:20:30.251Z,83.01
2023-05-03T02:21:30.230Z,82.80
2023-05-03T02:22:30.230Z,83.32
2023-05-03T02:23:30.217Z,83.53
2023-05-03T02:24:30.187Z,83.63
2023-05-03T02:25:30.210Z,83.42
2023-05-03T02:26:30.194Z,83.32
2023-05-03T02:27:30.207Z,83.25
2023-05-03T02:28:30.155Z,83.32
2023-05-03T02:29:30.126Z,83.42
2023-05-03T02:30:30.131Z,83.63
2023-05-03T02:31:30.202Z,83.67
2023-05-03T02:32:30.132Z,83.67
2023-05-03T02:33:30.123Z,83.77
2023-05-03T02:34:30.084Z,84.05
2023-05-03T02:35:30.058Z,84.08
2023-05-03T02:36:30.050Z,84.05
2023-05-03T02:37:30.030Z,83.98
2023-05-03T02:38:30.052Z,83.98
2023-05-03T02:39:30.032Z,84.19
2023-05-03T02:40:30.095Z,84.50
2023-05-03T02:41:30.003Z,84.50
2023-05-03T02:42:29.980Z,84.39
2023-05-03T02:43:29.999Z,84.45
2023-05-03T02:44:31.335Z,84.19
2023-05-03T02:45:29.958Z,84.29
2023-05-03T02:46:29.988Z,84.60
2023-05-03T02:47:29.956Z,84.81
2023-05-03T02:48:29.925Z,84.64
2023-05-03T02:49:29.928Z,84.50
2023-05-03T02:50:29.885Z,84.60
2023-05-03T02:51:29.887Z,84.91
2023-05-03T02:52:29.873Z,84.29
2023-05-03T02:53:29.847Z,84.91
2023-05-03T02:54:29.837Z,84.43
2023-05-03T02:55:29.843Z,84.50
2023-05-03T02:56:29.851Z,84.50
2023-05-03T02:57:29.850Z,84.81
2023-05-03T02:58:29.797Z,84.81
2023-05-03T02:59:29.806Z,84.95
2023-05-03T03:00:29.794Z,85.22
2023-05-03T03:01:29.827Z,85.02
2023-05-03T03:02:29.888Z,84.81
2023-05-03T03:03:29.943Z,85.22
2023-05-03T03:04:29.757Z,85.88
2023-05-03T03:05:29.765Z,85.57
2023-05-03T03:06:29.914Z,86.05
2023-05-03T03:07:29.692Z,85.84
2023-05-03T03:08:29.682Z,86.09
2023-05-03T03:09:29.679Z,86.15
2023-05-03T03:10:29.672Z,86.60
2023-05-03T03:11:29.711Z,85.94
2023-05-03T03:12:29.642Z,86.60
2023-05-03T03:13:29.639Z,86.81
2023-05-03T03:14:29.616Z,86.57
2023-05-03T03:15:29.598Z,86.81
2023-05-03T03:16:29.610Z,86.40
2023-05-03T03:17:29.636Z,86.29
2023-05-03T03:18:29.567Z,86.50
2023-05-03T03:19:29.550Z,86.71
2023-05-03T03:20:29.564Z,86.81
2023-05-03T03:21:29.527Z,87.02
2023-05-03T03:22:29.520Z,86.60
2023-05-03T03:23:29.538Z,86.71
2023-05-03T03:24:29.496Z,86.81
2023-05-03T03:25:29.496Z,86.50
2023-05-03T03:26:29.491Z,86.60
2023-05-03T03:27:29.471Z,86.60
2023-05-03T03:28:29.464Z,86.91
2023-05-03T03:29:29.486Z,86.81
2023-05-03T03:30:29.444Z,86.91
2023-05-03T03:31:29.471Z,86.91
2023-05-03T03:32:29.410Z,87.43
2023-05-03T03:33:29.410Z,87.64
2023-05-03T03:34:29.403Z,87.68
2023-05-03T03:35:29.419Z,87.95
2023-05-03T03:36:29.400Z,87.68
2023-05-03T03:37:29.348Z,87.85
2023-05-03T03:38:29.377Z,87.74
2023-05-03T03:39:29.334Z,87.95
2023-05-03T03:40:29.316Z,88.26
2023-05-03T03:41:29.330Z,88.26
2023-05-03T03:42:29.295Z,87.78
2023-05-03T03:43:29.301Z,87.99
2023-05-03T03:44:29.284Z,88.51
2023-05-03T03:45:29.293Z,88.09
2023-05-03T03:46:29.309Z,88.40
2023-05-03T03:47:29.272Z,88.20
2023-05-03T03:48:29.251Z,88.71
2023-05-03T03:49:29.225Z,88.51
2023-05-03T03:50:29.207Z,89.34
2023-05-03T03:51:29.207Z,88.92
2023-05-03T03:52:29.180Z,88.92
2023-05-03T03:53:29.195Z,88.82
2023-05-03T03:54:29.164Z,89.28
2023-05-03T03:55:29.171Z,88.24
2023-05-03T03:56:29.136Z,88.24
2023-05-03T03:57:29.123Z,88.61
2023-05-03T03:58:29.118Z,87.93
2023-05-03T03:59:29.114Z,88.24
2023-05-03T04:00:29.094Z,87.62
2023-05-03T04:01:29.097Z,88.24
2023-05-03T04:02:29.157Z,88.34
2023-05-03T04:03:29.139Z,88.24
2023-05-03T04:04:29.195Z,88.34
2023-05-03T04:05:29.059Z,88.24
2023-05-03T04:06:29.133Z,88.34
2023-05-03T04:07:29.008Z,88.13
2023-05-03T04:08:29.014Z,87.93
2023-05-03T04:09:28.988Z,88.34
2023-05-03T04:10:28.983Z,88.45
2023-05-03T04:11:28.962Z,88.61
2023-05-03T04:12:28.961Z,88.55
2023-05-03T04:13:28.955Z,88.55
2023-05-03T04:14:28.934Z,88.24
2023-05-03T04:15:28.938Z,88.13
2023-05-03T04:16:28.966Z,88.76
2023-05-03T04:17:28.957Z,88.76
2023-05-03T04:18:28.914Z,88.45
2023-05-03T04:19:28.891Z,88.55
2023-05-03T04:20:28.867Z,88.55
2023-05-03T04:21:28.860Z,88.76
2023-05-03T04:22:28.857Z,88.86
2023-05-03T04:23:28.845Z,89.69
2023-05-03T04:24:28.836Z,89.89
2023-05-03T04:25:28.866Z,89.89
2023-05-03T04:26:32.263Z,89.89
2023-05-03T04:27:28.795Z,90.00
2023-05-03T04:28:28.811Z,89.58
2023-05-03T04:29:28.776Z,90.10
2023-05-03T04:30:28.757Z,90.20
2023-05-03T04:31:28.923Z,90.10
2023-05-03T04:32:28.773Z,90.31
2023-05-03T04:33:28.752Z,90.31
2023-05-03T04:34:28.705Z,90.37
2023-05-03T04:35:28.693Z,90.52
2023-05-03T04:36:28.698Z,90.47
2023-05-03T04:37:28.675Z,91.14
2023-05-03T04:38:28.688Z,90.93
2023-05-03T04:39:28.660Z,90.62
2023-05-03T04:40:28.642Z,90.78
2023-05-03T04:41:28.641Z,90.58
2023-05-03T04:42:28.627Z,90.83
2023-05-03T04:43:28.633Z,90.62
2023-05-03T04:44:28.596Z,90.83
2023-05-03T04:45:28.590Z,90.41
2023-05-03T04:46:28.658Z,90.89
2023-05-03T04:47:28.581Z,90.78
2023-05-03T04:48:28.561Z,90.99
2023-05-03T04:49:28.569Z,91.09
2023-05-03T04:50:28.526Z,90.78
2023-05-03T04:51:28.518Z,90.26
2023-05-03T04:52:28.502Z,90.58
2023-05-03T04:53:28.501Z,90.37
2023-05-03T04:54:28.517Z,90.06
2023-05-03T04:55:28.501Z,90.44
2023-05-03T04:56:28.472Z,90.26
2023-05-03T04:57:28.442Z,90.06
2023-05-03T04:58:28.450Z,90.06
2023-05-03T04:59:28.451Z,90.44
2023-05-03T05:00:28.408Z,90.53
2023-05-03T05:01:28.477Z,90.60
2023-05-03T05:02:28.625Z,90.23
2023-05-03T05:03:28.478Z,90.44
2023-05-03T05:04:28.435Z,90.33
2023-05-03T05:05:28.387Z,90.12
2023-05-03T05:06:28.381Z,90.50
2023-05-03T05:07:28.346Z,90.39
2023-05-03T05:08:28.336Z,90.64
2023-05-03T05:09:28.321Z,90.70
2023-05-03T05:10:28.300Z,90.39
2023-05-03T05:11:28.297Z,90.29
2023-05-03T05:12:28.287Z,90.97
2023-05-03T05:13:28.267Z,90.97
2023-05-03T05:14:28.325Z,90.25
2023-05-03T05:15:28.274Z,90.25
2023-05-03T05:16:28.274Z,90.56
2023-05-03T05:17:28.309Z,90.45
2023-05-03T05:18:28.228Z,90.20
2023-05-03T05:19:28.249Z,90.26
2023-05-03T05:20:28.181Z,90.37
2023-05-03T05:21:28.208Z,90.26
2023-05-03T05:22:28.171Z,89.92
2023-05-03T05:23:28.181Z,89.67
2023-05-03T05:24:28.180Z,89.87
2023-05-03T05:25:28.308Z,89.25
2023-05-03T05:26:28.129Z,89.52
2023-05-03T05:27:28.121Z,89.25
2023-05-03T05:28:28.102Z,88.04
2023-05-03T05:29:28.090Z,87.83
2023-05-03T05:30:28.113Z,87.63
2023-05-03T05:31:28.082Z,86.70
2023-05-03T05:32:28.051Z,86.29
2023-05-03T05:33:28.057Z,86.15
2023-05-03T05:34:28.038Z,85.69
2023-05-03T05:35:28.034Z,84.42
2023-05-03T05:36:28.001Z,82.87
2023-05-03T05:37:28.013Z,83.35
2023-05-03T05:38:27.999Z,82.53
2023-05-03T05:39:28.207Z,81.19
2023-05-03T05:40:27.986Z,80.47
2023-05-03T05:41:27.961Z,80.16
2023-05-03T05:42:27.961Z,80.57
2023-05-03T05:43:27.924Z,80.67
2023-05-03T05:44:27.934Z,79.50
2023-05-03T05:45:27.915Z,78.68
2023-05-03T05:46:27.915Z,79.75
2023-05-03T05:47:27.939Z,79.26
2023-05-03T05:48:27.874Z,79.30
2023-05-03T05:49:27.854Z,78.96
2023-05-03T05:50:27.877Z,79.63
2023-05-03T05:51:27.840Z,78.67
2023-05-03T05:52:27.831Z,77.81
2023-05-03T05:53:27.838Z,76.28
2023-05-03T05:54:28.626Z,75.04
2023-05-03T05:55:27.820Z,76.48
2023-05-03T05:56:27.778Z,76.55
2023-05-03T05:57:27.777Z,76.14
2023-05-03T05:58:27.762Z,75.79
2023-05-03T05:59:27.742Z,75.90
2023-05-03T06:00:27.764Z,73.95
2023-05-03T06:01:27.751Z,73.02
2023-05-03T06:02:27.834Z,73.23
2023-05-03T06:03:27.717Z,73.85
2023-05-03T06:04:27.697Z,74.22
2023-05-03T06:05:27.760Z,74.32
2023-05-03T06:06:27.742Z,72.27
2023-05-03T06:07:27.653Z,71.48
2023-05-03T06:08:27.664Z,71.59
2023-05-03T06:09:27.779Z,72.55
2023-05-03T06:10:27.620Z,72.34
2023-05-03T06:11:27.646Z,72.55
2023-05-03T06:12:27.630Z,73.98
2023-05-03T06:13:27.598Z,73.44
2023-05-03T06:14:27.571Z,72.58
2023-05-03T06:15:27.597Z,72.48
2023-05-03T06:16:27.602Z,72.65
2023-05-03T06:17:27.566Z,70.16
2023-05-03T06:18:27.539Z,71.28
2023-05-03T06:19:27.530Z,70.43
2023-05-03T06:20:27.515Z,69.99
2023-05-03T06:21:27.507Z,69.24
2023-05-03T06:22:27.496Z,68.70
2023-05-03T06:23:27.477Z,67.03
2023-05-03T06:24:27.460Z,67.21
2023-05-03T06:25:27.496Z,66.97
2023-05-03T06:26:27.434Z,66.74
2023-05-03T06:27:27.436Z,64.66
2023-05-03T06:28:27.423Z,64.02
2023-05-03T06:29:27.413Z,63.51
2023-05-03T06:30:27.427Z,62.46
2023-05-03T06:31:27.534Z,61.93
2023-05-03T06:32:27.420Z,62.02
2023-05-03T06:33:27.370Z,62.33
2023-05-03T06:34:27.352Z,61.21
2023-05-03T06:35:27.347Z,60.80
2023-05-03T06:36:27.316Z,60.70
2023-05-03T06:37:27.340Z,61.38
2023-05-03T06:38:27.294Z,61.69
2023-05-03T06:39:27.316Z,60.98
2023-05-03T06:40:27.373Z,60.06
2023-05-03T06:41:27.306Z,60.03
2023-05-03T06:42:27.249Z,58.81
2023-05-03T06:43:27.249Z,58.53
2023-05-03T06:44:27.240Z,59.89
2023-05-03T06:45:27.261Z,60.77
2023-05-03T06:46:27.265Z,59.86
2023-05-03T06:47:27.314Z,60.03
2023-05-03T06:48:27.355Z,59.93
2023-05-03T06:49:27.209Z,58.44
2023-05-03T06:50:27.160Z,59.55
2023-05-03T06:51:27.154Z,58.13
2023-05-03T06:52:27.148Z,58.56
2023-05-03T06:53:27.151Z,60.27
2023-05-03T06:54:27.168Z,60.09
2023-05-03T06:55:27.110Z,58.36
2023-05-03T06:56:27.091Z,59.38
2023-05-03T06:57:28.670Z,58.15
2023-05-03T06:58:27.091Z,58.49
2023-05-03T06:59:27.070Z,59.23
2023-05-03T07:00:27.139Z,59.64
2023-05-03T07:01:27.132Z,60.99
2023-05-03T07:02:27.235Z,61.68
2023-05-03T07:03:27.293Z,62.16
2023-05-03T07:04:27.005Z,60.30
2023-05-03T07:05:27.010Z,60.19
2023-05-03T07:06:27.018Z,58.53
2023-05-03T07:07:26.980Z,58.33
2023-05-03T07:08:26.982Z,58.51
2023-05-03T07:10:27.206Z,57.69
2023-05-03T07:11:26.942Z,58.71
2023-05-03T07:12:26.919Z,58.07
2023-05-03T07:13:26.957Z,58.07
2023-05-03T07:14:26.883Z,58.17
2023-05-03T07:15:26.889Z,58.25
2023-05-03T07:16:26.919Z,57.84
2023-05-03T07:17:26.915Z,58.15
2023-05-03T07:18:26.839Z,57.54
2023-05-03T07:19:26.869Z,58.25
2023-05-03T07:20:26.816Z,57.61
2023-05-03T07:21:26.823Z,57.61
2023-05-03T07:22:26.791Z,56.29
2023-05-03T07:23:26.785Z,56.19
2023-05-03T07:24:26.789Z,56.57
2023-05-03T07:25:26.810Z,55.45
2023-05-03T07:26:26.766Z,56.04
2023-05-03T07:27:26.773Z,56.37
2023-05-03T07:28:26.731Z,54.41
2023-05-03T07:29:26.825Z,56.37
2023-05-03T07:30:26.707Z,55.48
2023-05-03T07:31:26.716Z,54.77
2023-05-03T07:32:26.779Z,56.49
2023-05-03T07:33:26.811Z,56.39
2023-05-03T07:34:26.670Z,56.57
2023-05-03T07:35:26.669Z,55.76
2023-05-03T07:36:26.633Z,54.92
2023-05-03T07:37:26.637Z,54.59
2023-05-03T07:38:26.610Z,54.05
2023-05-03T07:39:26.655Z,53.83
2023-05-03T07:40:26.601Z,53.30
2023-05-03T07:41:26.610Z,53.27
2023-05-03T07:42:26.568Z,53.47
2023-05-03T07:43:26.568Z,52.54
2023-05-03T07:44:26.542Z,52.74
2023-05-03T07:45:26.606Z,51.83
2023-05-03T07:46:26.628Z,51.42
2023-05-03T07:47:26.559Z,51.65
2023-05-03T07:48:26.509Z,51.95
2023-05-03T07:49:26.485Z,52.39
2023-05-03T07:50:26.477Z,52.89
2023-05-03T07:51:26.482Z,52.59
2023-05-03T07:52:26.455Z,52.08
2023-05-03T07:53:26.452Z,52.99
2023-05-03T07:54:26.430Z,52.86
2023-05-03T07:55:26.417Z,50.63
2023-05-03T07:56:26.421Z,50.51
2023-05-03T07:57:26.400Z,50.37
2023-05-03T07:58:38.865Z,50.24
2023-05-03T07:59:27.418Z,49.18
2023-05-03T08:00:26.362Z,48.03
2023-05-03T08:01:26.428Z,50.49
2023-05-03T08:02:26.460Z,49.86
2023-05-03T08:03:26.456Z,49.33
2023-05-03T08:04:26.798Z,48.93
2023-05-03T08:05:26.349Z,47.91
2023-05-03T08:06:26.408Z,48.50
2023-05-03T08:07:26.324Z,48.80
2023-05-03T08:08:26.265Z,47.06
2023-05-03T08:09:26.270Z,46.53
2023-05-03T08:10:26.246Z,47.06
2023-05-03T08:11:26.239Z,46.76
2023-05-03T08:12:26.261Z,46.37
2023-05-03T08:13:26.215Z,47.00
2023-05-03T08:14:26.213Z,47.03
2023-05-03T08:15:26.210Z,47.00
2023-05-03T08:16:26.325Z,47.31
2023-05-03T08:17:26.211Z,47.08
2023-05-03T08:18:26.164Z,46.76
2023-05-03T08:19:26.145Z,47.95
2023-05-03T08:20:26.165Z,47.74
2023-05-03T08:21:26.225Z,46.49
2023-05-03T08:22:26.125Z,44.55
2023-05-03T08:23:26.110Z,45.44
2023-05-03T08:24:26.084Z,45.72
2023-05-03T08:25:26.109Z,44.51
2023-05-03T08:26:26.110Z,44.47
2023-05-03T08:27:26.100Z,43.28
2023-05-03T08:28:26.056Z,43.66
2023-05-03T08:29:27.586Z,43.46
2023-05-03T08:30:26.032Z,43.00
2023-05-03T08:31:26.094Z,44.41
2023-05-03T08:32:26.008Z,44.33
2023-05-03T08:33:26.246Z,44.35
2023-05-03T08:34:25.979Z,44.47
2023-05-03T08:35:25.976Z,44.55
2023-05-03T08:36:25.971Z,44.15
2023-05-03T08:37:25.944Z,44.55
2023-05-03T08:38:25.947Z,44.83
2023-05-03T08:39:25.926Z,43.51
2023-05-03T08:40:25.909Z,42.98
2023-05-03T08:41:25.906Z,43.28
2023-05-03T08:42:25.979Z,43.76
2023-05-03T08:43:25.879Z,43.08
2023-05-03T08:44:25.881Z,43.87
2023-05-03T08:45:25.866Z,43.28
2023-05-03T08:46:25.861Z,43.79
2023-05-03T08:47:25.865Z,43.79
2023-05-03T08:48:25.829Z,43.36
2023-05-03T08:49:25.831Z,42.74
2023-05-03T08:50:25.809Z,43.12
2023-05-03T08:51:25.779Z,41.82
2023-05-03T08:52:25.778Z,43.52
2023-05-03T08:53:25.787Z,42.11
2023-05-03T08:54:25.762Z,41.19
2023-05-03T08:55:25.750Z,41.47
2023-05-03T08:56:25.743Z,41.17
2023-05-03T08:57:25.733Z,42.35
2023-05-03T08:58:25.714Z,41.33
2023-05-03T08:59:25.698Z,41.05
2023-05-03T09:00:25.686Z,41.93
2023-05-03T09:01:25.699Z,41.41
2023-05-03T09:02:25.798Z,40.79
2023-05-03T09:03:25.730Z,40.69
2023-05-03T09:04:25.744Z,39.57
2023-05-03T09:05:25.666Z,41.07
2023-05-03T09:06:25.644Z,41.05
2023-05-03T09:07:25.620Z,40.85
2023-05-03T09:08:25.607Z,40.03
2023-05-03T09:09:25.590Z,38.61
2023-05-03T09:10:25.565Z,39.11
2023-05-03T09:11:25.556Z,37.65
2023-05-03T09:12:25.540Z,39.09
2023-05-03T09:13:25.571Z,39.71
2023-05-03T09:14:25.531Z,40.41
2023-05-03T09:15:25.543Z,40.89
2023-05-03T09:16:25.510Z,41.21
2023-05-03T09:17:25.485Z,40.69
2023-05-03T09:18:25.475Z,39.77
2023-05-03T09:19:25.494Z,39.77
2023-05-03T09:20:25.460Z,39.67
2023-05-03T09:21:25.463Z,39.27
2023-05-03T09:22:25.448Z,39.87
2023-05-03T09:23:25.438Z,39.49
2023-05-03T09:24:25.427Z,39.40
2023-05-03T09:25:25.394Z,40.11
2023-05-03T09:26:25.387Z,40.91
2023-05-03T09:27:25.384Z,40.99
2023-05-03T09:28:25.366Z,40.27
2023-05-03T09:29:25.399Z,39.87
2023-05-03T09:30:25.344Z,39.49
2023-05-03T09:31:25.366Z,38.92
2023-05-03T09:32:25.452Z,42.18
2023-05-03T09:33:25.326Z,43.28
2023-05-03T09:34:25.326Z,41.17
2023-05-03T09:35:25.306Z,41.15
2023-05-03T09:36:25.275Z,40.93
2023-05-03T09:37:25.307Z,41.79
2023-05-03T09:38:25.253Z,40.97
2023-05-03T09:39:25.240Z,41.38
2023-05-03T09:40:25.254Z,40.05
2023-05-03T09:41:25.233Z,39.65
2023-05-03T09:42:25.208Z,39.81
2023-05-03T09:43:25.217Z,38.11
2023-05-03T09:44:25.187Z,38.42
2023-05-03T09:45:25.192Z,38.03
2023-05-03T09:46:25.369Z,39.83
2023-05-03T09:47:25.161Z,39.83
2023-05-03T09:48:25.156Z,40.01
2023-05-03T09:49:25.141Z,38.81
2023-05-03T09:50:25.140Z,38.43
2023-05-03T09:51:25.153Z,39.25
2023-05-03T09:52:25.112Z,39.77
2023-05-03T09:53:25.113Z,39.77
2023-05-03T09:54:25.715Z,38.49
2023-05-03T09:55:25.060Z,39.71
2023-05-03T09:56:25.083Z,40.93
2023-05-03T09:57:25.055Z,40.91
2023-05-03T09:58:25.047Z,42.02
2023-05-03T09:59:25.033Z,40.89
2023-05-03T10:00:25.026Z,40.07
2023-05-03T10:01:25.282Z,39.37
2023-05-03T10:02:25.016Z,39.57
2023-05-03T10:03:25.115Z,38.51
2023-05-03T10:04:25.099Z,41.65
2023-05-03T10:05:24.966Z,42.27
2023-05-03T10:06:25.020Z,41.05
2023-05-03T10:07:24.928Z,41.33
2023-05-03T10:08:24.963Z,41.01
2023-05-03T10:09:24.947Z,39.69
2023-05-03T10:10:24.912Z,40.09
2023-05-03T10:11:24.925Z,40.09
2023-05-03T10:12:24.878Z,39.40
2023-05-03T10:13:24.879Z,40.51
2023-05-03T10:14:24.866Z,39.73
2023-05-03T10:15:24.842Z,42.24
2023-05-03T10:16:24.969Z,41.60
2023-05-03T10:17:32.350Z,41.39
2023-05-03T10:18:25.859Z,41.57
2023-05-03T10:19:24.802Z,39.95
2023-05-03T10:20:25.318Z,39.55
2023-05-03T10:21:24.786Z,39.15
2023-05-03T10:22:24.801Z,40.25
2023-05-03T10:23:24.756Z,38.45
2023-05-03T10:24:24.769Z,39.87
2023-05-03T10:25:24.774Z,40.47
2023-05-03T10:26:24.752Z,40.45
2023-05-03T10:27:24.737Z,39.85
2023-05-03T10:28:24.721Z,41.05
2023-05-03T10:29:24.685Z,40.03
2023-05-03T10:30:24.694Z,38.95
2023-05-03T10:31:24.712Z,39.65
2023-05-03T10:32:24.761Z,39.57
2023-05-03T10:33:24.635Z,39.57
2023-05-03T10:34:24.722Z,39.99
2023-05-03T10:35:24.625Z,38.20
2023-05-03T10:36:26.025Z,40.17
2023-05-03T10:37:24.620Z,41.21
2023-05-03T10:38:24.597Z,41.01
2023-05-03T10:39:24.572Z,42.32
2023-05-03T10:40:24.585Z,43.42
2023-05-03T10:41:24.579Z,41.49
2023-05-03T10:42:24.558Z,42.88
2023-05-03T10:43:24.528Z,42.27
2023-05-03T10:44:24.531Z,43.54
2023-05-03T10:45:24.526Z,40.71
2023-05-03T10:46:24.553Z,41.01
2023-05-03T10:47:24.577Z,41.11
2023-05-03T10:48:24.486Z,39.69
2023-05-03T10:49:24.475Z,40.09
2023-05-03T10:50:24.463Z,40.57
2023-05-03T10:51:24.451Z,40.77
2023-05-03T10:52:24.444Z,40.77
2023-05-03T10:53:24.438Z,39.65
2023-05-03T10:54:24.422Z,39.73
2023-05-03T10:55:24.406Z,40.43
2023-05-03T10:56:24.386Z,40.01
2023-05-03T10:57:24.444Z,39.39
2023-05-03T10:58:24.390Z,40.39
2023-05-03T10:59:24.369Z,39.58
2023-05-03T11:00:24.359Z,39.78
2023-05-03T11:01:24.377Z,38.18
2023-05-03T11:02:24.366Z,37.58
2023-05-03T11:03:24.341Z,38.59
2023-05-03T11:04:24.384Z,39.00
2023-05-03T11:05:24.309Z,39.72
2023-05-03T11:06:24.332Z,38.43
2023-05-03T11:07:24.276Z,39.35
2023-05-03T11:08:24.282Z,38.45
2023-05-03T11:09:24.249Z,39.57
2023-05-03T11:10:24.241Z,39.57
2023-05-03T11:11:24.226Z,38.47
2023-05-03T11:12:24.253Z,40.07
2023-05-03T11:13:24.252Z,38.97
2023-05-03T11:14:24.202Z,39.57
2023-05-03T11:15:24.168Z,38.47
2023-05-03T11:17:41.130Z,38.29
2023-05-03T11:18:33.971Z,38.60
2023-05-03T11:19:33.986Z,39.71
2023-05-03T11:20:33.967Z,39.91
2023-05-03T11:21:33.936Z,38.70
2023-05-03T11:22:33.927Z,39.73
2023-05-03T11:23:33.906Z,37.42
2023-05-03T11:24:33.906Z,38.53
2023-05-03T11:25:33.914Z,38.76
2023-05-03T11:26:33.931Z,39.58
2023-05-03T11:27:33.879Z,40.69
2023-05-03T11:28:33.958Z,41.19
2023-05-03T11:29:33.864Z,41.27
2023-05-03T11:30:33.855Z,41.15
2023-05-03T11:31:35.199Z,41.55
2023-05-03T11:32:33.881Z,39.04
2023-05-03T11:33:33.810Z,40.06
2023-05-03T11:34:33.792Z,40.26
2023-05-03T11:35:33.783Z,39.06
2023-05-03T11:36:33.778Z,40.77
2023-05-03T11:37:33.761Z,41.15
2023-05-03T11:38:33.755Z,40.83
2023-05-03T11:39:33.741Z,39.03
2023-05-03T11:40:33.732Z,39.91
2023-05-03T11:41:33.723Z,38.59
2023-05-03T11:42:33.788Z,40.99
2023-05-03T11:43:33.722Z,40.09
2023-05-03T11:44:33.711Z,39.47
2023-05-03T11:45:33.712Z,38.65
2023-05-03T11:46:33.710Z,38.65
2023-05-03T11:47:33.645Z,38.45
2023-05-03T11:48:33.738Z,38.27
2023-05-03T11:49:33.611Z,37.46
2023-05-03T11:50:33.613Z,37.18
2023-05-03T11:51:33.613Z,38.31
2023-05-03T11:52:33.576Z,38.54
2023-05-03T11:53:33.591Z,39.16
2023-05-03T11:54:33.552Z,39.58
2023-05-03T11:55:33.568Z,40.19
2023-05-03T11:56:33.535Z,41.47
2023-05-03T11:57:33.532Z,40.55
2023-05-03T11:58:33.529Z,41.23
2023-05-03T11:59:33.521Z,38.72
2023-05-03T12:00:33.637Z,39.23
2023-05-03T12:01:33.482Z,38.62
2023-05-03T12:02:33.595Z,40.01
2023-05-03T12:03:34.363Z,39.71
2023-05-03T12:04:33.736Z,40.49
2023-05-03T12:05:33.580Z,39.89
2023-05-03T12:06:34.444Z,40.49
2023-05-03T12:07:33.621Z,40.37
2023-05-03T12:08:36.174Z,40.05
2023-05-03T12:09:33.663Z,38.15
2023-05-03T12:10:33.637Z,39.05
2023-05-03T12:11:35.871Z,38.65
2023-05-03T12:12:35.871Z,39.33
2023-05-03T12:13:34.692Z,39.93
2023-05-03T12:14:33.473Z,39.45
2023-05-03T12:15:33.762Z,38.45
2023-05-03T12:16:34.343Z,38.65
2023-05-03T12:17:33.841Z,38.25
2023-05-03T12:18:33.944Z,38.35
2023-05-03T12:19:34.666Z,37.46
2023-05-03T12:21:28.454Z,37.16
2023-05-03T12:21:35.644Z,38.09
2023-05-03T12:22:33.496Z,39.37
2023-05-03T12:23:34.504Z,39.47
2023-05-03T12:24:34.204Z,39.85
2023-05-03T12:25:34.424Z,39.65
2023-05-03T12:26:33.945Z,38.93
2023-05-03T12:27:33.234Z,39.63
2023-05-03T12:28:33.221Z,38.43
2023-05-03T12:29:35.418Z,38.71
2023-05-03T12:30:33.982Z,39.79
2023-05-03T12:31:34.749Z,39.39
2023-05-03T12:32:33.301Z,38.40
2023-05-03T12:33:33.766Z,38.07
2023-05-03T12:34:35.433Z,38.46
2023-05-03T12:35:34.444Z,38.54
2023-05-03T12:36:36.845Z,36.26
2023-05-03T12:37:33.477Z,36.58
2023-05-03T12:38:36.219Z,38.29
2023-05-03T12:39:33.541Z,37.29
2023-05-03T12:40:34.897Z,37.29
2023-05-03T12:42:05.402Z,38.01
2023-05-03T12:42:34.218Z,38.11
2023-05-03T12:43:33.090Z,38.61
2023-05-03T12:46:35.153Z,38.11
2023-05-03T12:47:36.080Z,37.92
2023-05-03T12:48:33.449Z,37.81
2023-05-03T12:49:33.113Z,37.81
2023-05-03T12:50:37.658Z,37.11
2023-05-03T12:51:34.192Z,36.51
2023-05-03T12:52:38.113Z,36.43
2023-05-03T12:53:36.751Z,37.07
2023-05-03T12:54:33.970Z,37.16
2023-05-03T12:55:33.362Z,37.08
2023-05-03T12:56:33.640Z,38.70